sensor_id;sensor_type;location;lat;lon;timestamp;temperature;humidity
39325;DHT22;25037;49.488;9.900;2024-02-21T00:00:06;10.60;63.50
39325;DHT22;25037;49.488;9.900;2024-02-21T00:02:33;10.60;63.60
39325;DHT22;25037;49.488;9.900;2024-02-21T00:04:59;10.70;63.50
39325;DHT22;25037;49.488;9.900;2024-02-21T00:07:26;10.70;63.50
39325;DHT22;25037;49.488;9.900;2024-02-21T00:09:53;10.70;63.60
39325;DHT22;25037;49.488;9.900;2024-02-21T00:12:19;10.70;63.60
39325;DHT22;25037;49.488;9.900;2024-02-21T00:14:46;10.70;63.60
39325;DHT22;25037;49.488;9.900;2024-02-21T00:17:13;10.70;63.60
39325;DHT22;25037;49.488;9.900;2024-02-21T00:19:39;10.70;63.60
39325;DHT22;25037;49.488;9.900;2024-02-21T00:22:06;10.70;63.60
39325;DHT22;25037;49.488;9.900;2024-02-21T00:24:33;10.70;63.60
39325;DHT22;25037;49.488;9.900;2024-02-21T00:27:00;10.70;63.60
39325;DHT22;25037;49.488;9.900;2024-02-21T00:29:26;10.70;63.60
39325;DHT22;25037;49.488;9.900;2024-02-21T00:31:53;10.70;63.60
39325;DHT22;25037;49.488;9.900;2024-02-21T00:34:20;10.70;63.60
39325;DHT22;25037;49.488;9.900;2024-02-21T00:36:47;10.70;63.70
39325;DHT22;25037;49.488;9.900;2024-02-21T00:39:14;10.70;63.70
39325;DHT22;25037;49.488;9.900;2024-02-21T00:41:40;10.70;63.70
39325;DHT22;25037;49.488;9.900;2024-02-21T00:44:07;10.70;63.70
39325;DHT22;25037;49.488;9.900;2024-02-21T00:46:34;10.70;63.70
39325;DHT22;25037;49.488;9.900;2024-02-21T00:49:00;10.70;63.70
39325;DHT22;25037;49.488;9.900;2024-02-21T00:51:27;10.70;63.70
39325;DHT22;25037;49.488;9.900;2024-02-21T00:53:54;10.70;63.80
39325;DHT22;25037;49.488;9.900;2024-02-21T00:56:21;10.70;63.80
39325;DHT22;25037;49.488;9.900;2024-02-21T00:58:48;10.60;63.90
39325;DHT22;25037;49.488;9.900;2024-02-21T01:01:22;10.60;63.90
39325;DHT22;25037;49.488;9.900;2024-02-21T01:03:49;10.60;64.00
39325;DHT22;25037;49.488;9.900;2024-02-21T01:06:16;10.60;64.00
39325;DHT22;25037;49.488;9.900;2024-02-21T01:08:43;10.60;64.00
39325;DHT22;25037;49.488;9.900;2024-02-21T01:11:09;10.50;64.00
39325;DHT22;25037;49.488;9.900;2024-02-21T01:13:36;10.60;64.00
39325;DHT22;25037;49.488;9.900;2024-02-21T01:16:03;10.50;64.00
39325;DHT22;25037;49.488;9.900;2024-02-21T01:18:30;10.50;64.00
39325;DHT22;25037;49.488;9.900;2024-02-21T01:20:57;10.50;64.10
39325;DHT22;25037;49.488;9.900;2024-02-21T01:23:23;10.50;64.00
39325;DHT22;25037;49.488;9.900;2024-02-21T01:25:51;10.50;64.10
39325;DHT22;25037;49.488;9.900;2024-02-21T01:28:18;10.50;64.10
39325;DHT22;25037;49.488;9.900;2024-02-21T01:30:47;10.50;64.10
39325;DHT22;25037;49.488;9.900;2024-02-21T01:33:14;10.50;64.10
39325;DHT22;25037;49.488;9.900;2024-02-21T01:35:40;10.40;64.20
39325;DHT22;25037;49.488;9.900;2024-02-21T01:38:07;10.40;64.20
39325;DHT22;25037;49.488;9.900;2024-02-21T01:40:34;10.30;64.30
39325;DHT22;25037;49.488;9.900;2024-02-21T01:43:01;10.40;64.30
39325;DHT22;25037;49.488;9.900;2024-02-21T01:45:27;10.30;64.30
39325;DHT22;25037;49.488;9.900;2024-02-21T01:47:54;10.40;64.40
39325;DHT22;25037;49.488;9.900;2024-02-21T01:50:22;10.30;64.40
39325;DHT22;25037;49.488;9.900;2024-02-21T01:52:50;10.30;64.40
39325;DHT22;25037;49.488;9.900;2024-02-21T01:55:17;10.30;64.40
39325;DHT22;25037;49.488;9.900;2024-02-21T01:57:44;10.30;64.40
39325;DHT22;25037;49.488;9.900;2024-02-21T02:00:15;10.30;64.40
39325;DHT22;25037;49.488;9.900;2024-02-21T02:02:42;10.30;64.40
39325;DHT22;25037;49.488;9.900;2024-02-21T02:05:09;10.20;64.50
39325;DHT22;25037;49.488;9.900;2024-02-21T02:07:37;10.30;64.50
39325;DHT22;25037;49.488;9.900;2024-02-21T02:10:04;10.30;64.60
39325;DHT22;25037;49.488;9.900;2024-02-21T02:12:31;10.30;64.60
39325;DHT22;25037;49.488;9.900;2024-02-21T02:15:01;10.30;64.60
39325;DHT22;25037;49.488;9.900;2024-02-21T02:17:28;10.30;64.60
39325;DHT22;25037;49.488;9.900;2024-02-21T02:19:54;10.30;64.60
39325;DHT22;25037;49.488;9.900;2024-02-21T02:22:42;10.30;64.50
39325;DHT22;25037;49.488;9.900;2024-02-21T02:25:09;10.40;64.50
39325;DHT22;25037;49.488;9.900;2024-02-21T02:27:43;10.40;64.50
39325;DHT22;25037;49.488;9.900;2024-02-21T02:30:12;10.40;64.40
39325;DHT22;25037;49.488;9.900;2024-02-21T02:32:39;10.50;64.40
39325;DHT22;25037;49.488;9.900;2024-02-21T02:35:09;10.40;64.50
39325;DHT22;25037;49.488;9.900;2024-02-21T02:37:36;10.50;64.60
39325;DHT22;25037;49.488;9.900;2024-02-21T02:40:06;10.50;64.70
39325;DHT22;25037;49.488;9.900;2024-02-21T02:42:33;10.50;64.80
39325;DHT22;25037;49.488;9.900;2024-02-21T02:45:00;10.40;64.90
39325;DHT22;25037;49.488;9.900;2024-02-21T02:47:27;10.40;65.00
39325;DHT22;25037;49.488;9.900;2024-02-21T02:49:53;10.50;65.10
39325;DHT22;25037;49.488;9.900;2024-02-21T02:52:20;10.40;65.30
39325;DHT22;25037;49.488;9.900;2024-02-21T02:54:47;10.50;65.40
39325;DHT22;25037;49.488;9.900;2024-02-21T02:57:18;10.40;65.60
39325;DHT22;25037;49.488;9.900;2024-02-21T02:59:51;10.40;65.70
39325;DHT22;25037;49.488;9.900;2024-02-21T03:02:17;10.40;66.00
39325;DHT22;25037;49.488;9.900;2024-02-21T03:04:44;10.40;66.00
39325;DHT22;25037;49.488;9.900;2024-02-21T03:07:11;10.40;66.20
39325;DHT22;25037;49.488;9.900;2024-02-21T03:09:38;10.40;66.30
39325;DHT22;25037;49.488;9.900;2024-02-21T03:12:06;10.30;66.30
39325;DHT22;25037;49.488;9.900;2024-02-21T03:14:33;10.30;66.50
39325;DHT22;25037;49.488;9.900;2024-02-21T03:16:59;10.30;66.50
39325;DHT22;25037;49.488;9.900;2024-02-21T03:19:27;10.30;66.60
39325;DHT22;25037;49.488;9.900;2024-02-21T03:21:53;10.20;66.60
39325;DHT22;25037;49.488;9.900;2024-02-21T03:24:20;10.20;66.50
39325;DHT22;25037;49.488;9.900;2024-02-21T03:26:47;10.20;66.60
39325;DHT22;25037;49.488;9.900;2024-02-21T03:29:15;10.10;66.70
39325;DHT22;25037;49.488;9.900;2024-02-21T03:31:42;10.10;66.80
39325;DHT22;25037;49.488;9.900;2024-02-21T03:34:12;10.10;66.80
39325;DHT22;25037;49.488;9.900;2024-02-21T03:36:40;10.10;66.80
39325;DHT22;25037;49.488;9.900;2024-02-21T03:39:07;10.10;66.80
39325;DHT22;25037;49.488;9.900;2024-02-21T03:41:35;10.10;66.90
39325;DHT22;25037;49.488;9.900;2024-02-21T03:44:02;10.00;67.00
39325;DHT22;25037;49.488;9.900;2024-02-21T03:46:28;10.00;67.00
39325;DHT22;25037;49.488;9.900;2024-02-21T03:48:55;10.00;67.00
39325;DHT22;25037;49.488;9.900;2024-02-21T03:51:22;10.00;67.10
39325;DHT22;25037;49.488;9.900;2024-02-21T03:53:49;10.00;67.10
39325;DHT22;25037;49.488;9.900;2024-02-21T03:56:15;10.00;67.20
39325;DHT22;25037;49.488;9.900;2024-02-21T03:58:42;10.00;67.20
39325;DHT22;25037;49.488;9.900;2024-02-21T04:01:08;10.00;67.20
39325;DHT22;25037;49.488;9.900;2024-02-21T04:03:35;10.00;67.10
39325;DHT22;25037;49.488;9.900;2024-02-21T04:06:02;10.00;67.20
39325;DHT22;25037;49.488;9.900;2024-02-21T04:08:29;10.00;67.20
39325;DHT22;25037;49.488;9.900;2024-02-21T04:10:56;10.00;67.30
39325;DHT22;25037;49.488;9.900;2024-02-21T04:13:22;10.00;67.30
39325;DHT22;25037;49.488;9.900;2024-02-21T04:15:49;10.00;67.40
39325;DHT22;25037;49.488;9.900;2024-02-21T04:18:16;10.00;67.40
39325;DHT22;25037;49.488;9.900;2024-02-21T04:20:42;10.00;67.40
39325;DHT22;25037;49.488;9.900;2024-02-21T04:23:10;10.00;67.40
39325;DHT22;25037;49.488;9.900;2024-02-21T04:25:36;10.00;67.40
39325;DHT22;25037;49.488;9.900;2024-02-21T04:28:03;10.00;67.40
39325;DHT22;25037;49.488;9.900;2024-02-21T04:30:30;10.00;67.40
39325;DHT22;25037;49.488;9.900;2024-02-21T04:32:57;10.00;67.40
39325;DHT22;25037;49.488;9.900;2024-02-21T04:35:23;9.90;67.40
39325;DHT22;25037;49.488;9.900;2024-02-21T04:37:50;10.00;67.50
39325;DHT22;25037;49.488;9.900;2024-02-21T04:40:17;9.90;67.50
39325;DHT22;25037;49.488;9.900;2024-02-21T04:42:44;9.90;67.50
39325;DHT22;25037;49.488;9.900;2024-02-21T04:45:10;9.90;67.50
39325;DHT22;25037;49.488;9.900;2024-02-21T04:47:37;9.90;67.50
39325;DHT22;25037;49.488;9.900;2024-02-21T04:50:04;9.90;67.50
39325;DHT22;25037;49.488;9.900;2024-02-21T04:52:31;9.90;67.50
39325;DHT22;25037;49.488;9.900;2024-02-21T04:54:57;9.90;67.50
39325;DHT22;25037;49.488;9.900;2024-02-21T04:57:24;9.90;67.50
39325;DHT22;25037;49.488;9.900;2024-02-21T04:59:51;9.90;67.50
39325;DHT22;25037;49.488;9.900;2024-02-21T05:02:18;9.90;67.50
39325;DHT22;25037;49.488;9.900;2024-02-21T05:04:46;9.80;67.50
39325;DHT22;25037;49.488;9.900;2024-02-21T05:07:13;9.80;67.50
39325;DHT22;25037;49.488;9.900;2024-02-21T05:09:40;9.70;67.50
39325;DHT22;25037;49.488;9.900;2024-02-21T05:12:08;9.70;67.60
39325;DHT22;25037;49.488;9.900;2024-02-21T05:14:35;9.60;67.60
39325;DHT22;25037;49.488;9.900;2024-02-21T05:17:01;9.60;67.60
39325;DHT22;25037;49.488;9.900;2024-02-21T05:19:28;9.50;67.70
39325;DHT22;25037;49.488;9.900;2024-02-21T05:21:55;9.50;67.70
39325;DHT22;25037;49.488;9.900;2024-02-21T05:24:21;9.50;67.80
39325;DHT22;25037;49.488;9.900;2024-02-21T05:26:48;9.50;67.80
39325;DHT22;25037;49.488;9.900;2024-02-21T05:29:15;9.40;67.80
39325;DHT22;25037;49.488;9.900;2024-02-21T05:34:18;9.40;67.90
39325;DHT22;25037;49.488;9.900;2024-02-21T05:36:45;9.40;67.90
39325;DHT22;25037;49.488;9.900;2024-02-21T05:39:13;9.30;67.90
39325;DHT22;25037;49.488;9.900;2024-02-21T05:41:41;9.30;67.90
39325;DHT22;25037;49.488;9.900;2024-02-21T05:44:07;9.30;67.90
39325;DHT22;25037;49.488;9.900;2024-02-21T05:46:34;9.30;67.90
39325;DHT22;25037;49.488;9.900;2024-02-21T05:49:01;9.30;67.90
39325;DHT22;25037;49.488;9.900;2024-02-21T05:51:35;9.30;67.90
39325;DHT22;25037;49.488;9.900;2024-02-21T05:54:02;9.30;67.90
39325;DHT22;25037;49.488;9.900;2024-02-21T05:56:28;9.30;67.90
39325;DHT22;25037;49.488;9.900;2024-02-21T05:58:55;9.20;67.90
39325;DHT22;25037;49.488;9.900;2024-02-21T06:01:23;9.20;67.90
39325;DHT22;25037;49.488;9.900;2024-02-21T06:03:49;9.10;67.90
39325;DHT22;25037;49.488;9.900;2024-02-21T06:06:16;9.10;67.90
39325;DHT22;25037;49.488;9.900;2024-02-21T06:08:43;9.10;68.00
39325;DHT22;25037;49.488;9.900;2024-02-21T06:11:10;9.00;68.00
39325;DHT22;25037;49.488;9.900;2024-02-21T06:13:40;9.00;68.00
39325;DHT22;25037;49.488;9.900;2024-02-21T06:16:07;9.00;68.10
39325;DHT22;25037;49.488;9.900;2024-02-21T06:18:35;8.90;68.10
39325;DHT22;25037;49.488;9.900;2024-02-21T06:21:03;8.90;68.10
39325;DHT22;25037;49.488;9.900;2024-02-21T06:23:30;8.90;68.00
39325;DHT22;25037;49.488;9.900;2024-02-21T06:25:56;8.90;68.00
39325;DHT22;25037;49.488;9.900;2024-02-21T06:28:23;8.90;68.00
39325;DHT22;25037;49.488;9.900;2024-02-21T06:30:50;8.90;68.00
39325;DHT22;25037;49.488;9.900;2024-02-21T06:33:17;8.90;68.00
39325;DHT22;25037;49.488;9.900;2024-02-21T06:35:43;8.90;68.00
39325;DHT22;25037;49.488;9.900;2024-02-21T06:38:13;8.80;68.00
39325;DHT22;25037;49.488;9.900;2024-02-21T06:40:42;8.90;68.00
39325;DHT22;25037;49.488;9.900;2024-02-21T06:43:09;8.90;68.00
39325;DHT22;25037;49.488;9.900;2024-02-21T06:45:36;9.00;67.90
39325;DHT22;25037;49.488;9.900;2024-02-21T06:48:03;9.00;67.90
39325;DHT22;25037;49.488;9.900;2024-02-21T06:50:30;9.10;67.80
39325;DHT22;25037;49.488;9.900;2024-02-21T06:52:56;9.20;67.90
39325;DHT22;25037;49.488;9.900;2024-02-21T06:55:23;9.30;67.70
39325;DHT22;25037;49.488;9.900;2024-02-21T06:57:50;9.30;67.50
39325;DHT22;25037;49.488;9.900;2024-02-21T07:00:17;9.40;67.40
39325;DHT22;25037;49.488;9.900;2024-02-21T07:02:43;9.50;67.20
39325;DHT22;25037;49.488;9.900;2024-02-21T07:05:10;9.60;67.00
39325;DHT22;25037;49.488;9.900;2024-02-21T07:07:37;10.30;66.10
39325;DHT22;25037;49.488;9.900;2024-02-21T07:10:04;12.10;62.60
39325;DHT22;25037;49.488;9.900;2024-02-21T07:12:31;12.80;60.60
39325;DHT22;25037;49.488;9.900;2024-02-21T07:14:57;12.80;60.50
39325;DHT22;25037;49.488;9.900;2024-02-21T07:17:24;12.70;60.90
39325;DHT22;25037;49.488;9.900;2024-02-21T07:19:51;12.60;61.10
39325;DHT22;25037;49.488;9.900;2024-02-21T07:22:18;12.40;61.60
39325;DHT22;25037;49.488;9.900;2024-02-21T07:24:45;12.20;62.00
39325;DHT22;25037;49.488;9.900;2024-02-21T07:27:14;12.00;62.50
39325;DHT22;25037;49.488;9.900;2024-02-21T07:29:41;11.90;62.80
39325;DHT22;25037;49.488;9.900;2024-02-21T07:32:08;11.70;63.10
39325;DHT22;25037;49.488;9.900;2024-02-21T07:34:35;11.50;63.40
39325;DHT22;25037;49.488;9.900;2024-02-21T07:37:02;11.40;63.70
39325;DHT22;25037;49.488;9.900;2024-02-21T07:39:29;11.30;63.90
39325;DHT22;25037;49.488;9.900;2024-02-21T07:41:55;11.30;64.10
39325;DHT22;25037;49.488;9.900;2024-02-21T07:44:22;11.40;64.10
39325;DHT22;25037;49.488;9.900;2024-02-21T07:46:49;11.50;63.90
39325;DHT22;25037;49.488;9.900;2024-02-21T07:49:16;11.70;63.80
39325;DHT22;25037;49.488;9.900;2024-02-21T07:51:42;11.80;63.60
39325;DHT22;25037;49.488;9.900;2024-02-21T07:54:09;11.90;63.30
39325;DHT22;25037;49.488;9.900;2024-02-21T07:56:41;12.00;63.10
39325;DHT22;25037;49.488;9.900;2024-02-21T07:59:07;12.20;62.90
39325;DHT22;25037;49.488;9.900;2024-02-21T08:01:34;12.30;62.70
39325;DHT22;25037;49.488;9.900;2024-02-21T08:04:01;12.40;62.40
39325;DHT22;25037;49.488;9.900;2024-02-21T08:06:31;12.50;62.20
39325;DHT22;25037;49.488;9.900;2024-02-21T08:08:57;12.60;62.00
39325;DHT22;25037;49.488;9.900;2024-02-21T08:11:24;12.80;61.70
39325;DHT22;25037;49.488;9.900;2024-02-21T08:13:51;12.80;61.50
39325;DHT22;25037;49.488;9.900;2024-02-21T08:16:18;12.90;61.20
39325;DHT22;25037;49.488;9.900;2024-02-21T08:18:44;13.10;60.90
39325;DHT22;25037;49.488;9.900;2024-02-21T08:21:11;13.20;60.80
39325;DHT22;25037;49.488;9.900;2024-02-21T08:23:38;13.30;60.70
39325;DHT22;25037;49.488;9.900;2024-02-21T08:26:05;13.40;60.60
39325;DHT22;25037;49.488;9.900;2024-02-21T08:28:31;13.50;60.40
39325;DHT22;25037;49.488;9.900;2024-02-21T08:30:58;13.60;60.00
39325;DHT22;25037;49.488;9.900;2024-02-21T08:33:25;13.80;59.80
39325;DHT22;25037;49.488;9.900;2024-02-21T08:35:52;13.90;59.50
39325;DHT22;25037;49.488;9.900;2024-02-21T08:38:19;14.00;59.40
39325;DHT22;25037;49.488;9.900;2024-02-21T08:40:45;14.00;59.00
39325;DHT22;25037;49.488;9.900;2024-02-21T08:43:12;14.20;58.50
39325;DHT22;25037;49.488;9.900;2024-02-21T08:45:39;14.20;58.20
39325;DHT22;25037;49.488;9.900;2024-02-21T08:48:06;14.20;57.80
39325;DHT22;25037;49.488;9.900;2024-02-21T08:50:33;14.20;57.80
39325;DHT22;25037;49.488;9.900;2024-02-21T08:53:00;14.30;57.60
39325;DHT22;25037;49.488;9.900;2024-02-21T08:55:26;14.30;57.70
39325;DHT22;25037;49.488;9.900;2024-02-21T08:57:53;14.40;57.60
39325;DHT22;25037;49.488;9.900;2024-02-21T09:00:20;14.40;57.50
39325;DHT22;25037;49.488;9.900;2024-02-21T09:02:51;14.50;57.30
39325;DHT22;25037;49.488;9.900;2024-02-21T09:05:17;14.50;57.10
39325;DHT22;25037;49.488;9.900;2024-02-21T09:07:46;14.50;57.00
39325;DHT22;25037;49.488;9.900;2024-02-21T09:10:12;14.50;56.80
39325;DHT22;25037;49.488;9.900;2024-02-21T09:12:39;14.50;56.80
39325;DHT22;25037;49.488;9.900;2024-02-21T09:15:07;14.50;57.00
39325;DHT22;25037;49.488;9.900;2024-02-21T09:17:33;14.50;56.80
39325;DHT22;25037;49.488;9.900;2024-02-21T09:20:00;14.50;56.80
39325;DHT22;25037;49.488;9.900;2024-02-21T09:22:30;14.60;56.80
39325;DHT22;25037;49.488;9.900;2024-02-21T09:24:58;14.50;56.50
39325;DHT22;25037;49.488;9.900;2024-02-21T09:27:24;14.50;56.30
39325;DHT22;25037;49.488;9.900;2024-02-21T09:29:52;14.50;56.40
39325;DHT22;25037;49.488;9.900;2024-02-21T09:32:19;14.50;56.10
39325;DHT22;25037;49.488;9.900;2024-02-21T09:34:46;14.40;56.20
39325;DHT22;25037;49.488;9.900;2024-02-21T09:37:13;14.50;56.30
39325;DHT22;25037;49.488;9.900;2024-02-21T09:39:39;14.40;56.20
39325;DHT22;25037;49.488;9.900;2024-02-21T09:42:06;14.50;56.10
39325;DHT22;25037;49.488;9.900;2024-02-21T09:44:37;14.50;56.10
39325;DHT22;25037;49.488;9.900;2024-02-21T09:47:14;14.50;56.00
39325;DHT22;25037;49.488;9.900;2024-02-21T09:49:43;14.50;55.90
39325;DHT22;25037;49.488;9.900;2024-02-21T09:52:12;14.50;55.90
39325;DHT22;25037;49.488;9.900;2024-02-21T09:54:40;14.50;55.80
39325;DHT22;25037;49.488;9.900;2024-02-21T09:57:11;14.50;55.80
39325;DHT22;25037;49.488;9.900;2024-02-21T09:59:39;14.50;55.70
39325;DHT22;25037;49.488;9.900;2024-02-21T10:02:08;14.60;55.60
39325;DHT22;25037;49.488;9.900;2024-02-21T10:04:35;14.60;55.50
39325;DHT22;25037;49.488;9.900;2024-02-21T10:07:03;14.70;55.30
39325;DHT22;25037;49.488;9.900;2024-02-21T10:09:30;14.70;55.10
39325;DHT22;25037;49.488;9.900;2024-02-21T10:12:11;14.70;55.00
39325;DHT22;25037;49.488;9.900;2024-02-21T10:14:39;14.70;55.00
39325;DHT22;25037;49.488;9.900;2024-02-21T10:17:06;14.70;55.10
39325;DHT22;25037;49.488;9.900;2024-02-21T10:19:37;14.70;55.30
39325;DHT22;25037;49.488;9.900;2024-02-21T10:22:09;14.80;55.10
39325;DHT22;25037;49.488;9.900;2024-02-21T10:24:37;14.80;54.70
39325;DHT22;25037;49.488;9.900;2024-02-21T10:27:13;14.80;54.70
39325;DHT22;25037;49.488;9.900;2024-02-21T10:29:40;14.80;54.40
39325;DHT22;25037;49.488;9.900;2024-02-21T10:32:10;14.90;54.30
39325;DHT22;25037;49.488;9.900;2024-02-21T10:34:39;14.90;54.10
39325;DHT22;25037;49.488;9.900;2024-02-21T10:37:08;15.00;54.00
39325;DHT22;25037;49.488;9.900;2024-02-21T10:39:37;15.10;54.20
39325;DHT22;25037;49.488;9.900;2024-02-21T10:42:05;15.20;53.90
39325;DHT22;25037;49.488;9.900;2024-02-21T10:44:34;15.30;53.70
39325;DHT22;25037;49.488;9.900;2024-02-21T10:47:12;15.40;53.20
39325;DHT22;25037;49.488;9.900;2024-02-21T10:49:44;15.60;52.90
39325;DHT22;25037;49.488;9.900;2024-02-21T10:55:10;15.70;52.10
39325;DHT22;25037;49.488;9.900;2024-02-21T10:57:38;15.80;52.00
39325;DHT22;25037;49.488;9.900;2024-02-21T11:00:05;15.90;51.70
39325;DHT22;25037;49.488;9.900;2024-02-21T11:02:34;16.00;51.70
39325;DHT22;25037;49.488;9.900;2024-02-21T11:05:02;16.10;51.20
39325;DHT22;25037;49.488;9.900;2024-02-21T11:07:31;16.20;50.90
39325;DHT22;25037;49.488;9.900;2024-02-21T11:09:59;16.20;50.90
39325;DHT22;25037;49.488;9.900;2024-02-21T11:12:26;16.30;50.90
39325;DHT22;25037;49.488;9.900;2024-02-21T11:15:06;16.40;50.60
39325;DHT22;25037;49.488;9.900;2024-02-21T11:17:33;16.50;50.20
39325;DHT22;25037;49.488;9.900;2024-02-21T11:20:13;16.50;50.30
39325;DHT22;25037;49.488;9.900;2024-02-21T11:22:42;16.60;50.50
39325;DHT22;25037;49.488;9.900;2024-02-21T11:25:10;16.70;50.40
39325;DHT22;25037;49.488;9.900;2024-02-21T11:27:45;16.80;50.50
39325;DHT22;25037;49.488;9.900;2024-02-21T11:30:12;16.90;50.00
39325;DHT22;25037;49.488;9.900;2024-02-21T11:32:40;17.00;50.00
39325;DHT22;25037;49.488;9.900;2024-02-21T11:35:07;17.10;49.60
39325;DHT22;25037;49.488;9.900;2024-02-21T11:37:36;17.20;49.50
39325;DHT22;25037;49.488;9.900;2024-02-21T11:40:07;17.20;49.40
39325;DHT22;25037;49.488;9.900;2024-02-21T11:42:37;17.20;49.00
39325;DHT22;25037;49.488;9.900;2024-02-21T11:45:04;17.20;48.90
39325;DHT22;25037;49.488;9.900;2024-02-21T11:47:31;17.20;49.30
39325;DHT22;25037;49.488;9.900;2024-02-21T11:49:58;17.10;49.10
39325;DHT22;25037;49.488;9.900;2024-02-21T11:52:25;17.10;48.80
39325;DHT22;25037;49.488;9.900;2024-02-21T11:54:54;17.10;48.80
39325;DHT22;25037;49.488;9.900;2024-02-21T11:57:22;17.10;48.40
39325;DHT22;25037;49.488;9.900;2024-02-21T11:59:51;17.10;48.30
39325;DHT22;25037;49.488;9.900;2024-02-21T12:02:23;17.10;48.10
39325;DHT22;25037;49.488;9.900;2024-02-21T12:04:49;17.00;47.90
39325;DHT22;25037;49.488;9.900;2024-02-21T12:07:17;17.00;48.40
39325;DHT22;25037;49.488;9.900;2024-02-21T12:09:44;17.00;48.20
39325;DHT22;25037;49.488;9.900;2024-02-21T12:12:11;17.00;47.90
39325;DHT22;25037;49.488;9.900;2024-02-21T12:14:37;17.00;47.60
39325;DHT22;25037;49.488;9.900;2024-02-21T12:17:04;17.00;47.60
39325;DHT22;25037;49.488;9.900;2024-02-21T12:19:32;17.00;47.40
39325;DHT22;25037;49.488;9.900;2024-02-21T12:21:59;17.00;47.80
39325;DHT22;25037;49.488;9.900;2024-02-21T12:24:28;17.00;47.70
39325;DHT22;25037;49.488;9.900;2024-02-21T12:26:56;17.00;47.70
39325;DHT22;25037;49.488;9.900;2024-02-21T12:29:24;17.00;47.10
39325;DHT22;25037;49.488;9.900;2024-02-21T12:31:55;16.90;46.90
39325;DHT22;25037;49.488;9.900;2024-02-21T12:34:23;16.90;47.10
39325;DHT22;25037;49.488;9.900;2024-02-21T12:37:04;16.90;47.00
39325;DHT22;25037;49.488;9.900;2024-02-21T12:39:31;16.80;47.10
39325;DHT22;25037;49.488;9.900;2024-02-21T12:41:59;16.80;47.20
39325;DHT22;25037;49.488;9.900;2024-02-21T12:44:25;16.80;47.20
39325;DHT22;25037;49.488;9.900;2024-02-21T12:46:53;16.80;47.60
39325;DHT22;25037;49.488;9.900;2024-02-21T12:49:21;16.80;47.50
39325;DHT22;25037;49.488;9.900;2024-02-21T12:51:48;16.90;47.40
39325;DHT22;25037;49.488;9.900;2024-02-21T12:54:15;16.80;47.20
39325;DHT22;25037;49.488;9.900;2024-02-21T12:56:41;16.80;47.40
39325;DHT22;25037;49.488;9.900;2024-02-21T12:59:08;16.80;47.40
39325;DHT22;25037;49.488;9.900;2024-02-21T13:01:38;16.80;47.20
39325;DHT22;25037;49.488;9.900;2024-02-21T13:04:05;16.80;47.10
39325;DHT22;25037;49.488;9.900;2024-02-21T13:06:32;16.80;47.00
39325;DHT22;25037;49.488;9.900;2024-02-21T13:08:59;16.80;47.00
39325;DHT22;25037;49.488;9.900;2024-02-21T13:11:30;16.80;47.00
39325;DHT22;25037;49.488;9.900;2024-02-21T13:13:58;16.80;47.10
39325;DHT22;25037;49.488;9.900;2024-02-21T13:16:25;16.80;47.10
39325;DHT22;25037;49.488;9.900;2024-02-21T13:18:53;16.80;47.00
39325;DHT22;25037;49.488;9.900;2024-02-21T13:21:20;16.80;47.00
39325;DHT22;25037;49.488;9.900;2024-02-21T13:23:47;16.80;47.10
39325;DHT22;25037;49.488;9.900;2024-02-21T13:26:14;16.80;46.90
39325;DHT22;25037;49.488;9.900;2024-02-21T13:28:42;16.70;47.10
39325;DHT22;25037;49.488;9.900;2024-02-21T13:31:11;16.70;47.20
39325;DHT22;25037;49.488;9.900;2024-02-21T13:33:37;16.70;46.90
39325;DHT22;25037;49.488;9.900;2024-02-21T13:36:05;16.70;46.90
39325;DHT22;25037;49.488;9.900;2024-02-21T13:38:31;16.70;46.80
39325;DHT22;25037;49.488;9.900;2024-02-21T13:40:58;16.70;46.80
39325;DHT22;25037;49.488;9.900;2024-02-21T13:43:27;16.70;46.80
39325;DHT22;25037;49.488;9.900;2024-02-21T13:45:58;16.70;46.80
39325;DHT22;25037;49.488;9.900;2024-02-21T13:48:25;16.70;46.80
39325;DHT22;25037;49.488;9.900;2024-02-21T13:50:53;16.70;46.80
39325;DHT22;25037;49.488;9.900;2024-02-21T13:53:20;16.70;46.60
39325;DHT22;25037;49.488;9.900;2024-02-21T13:55:48;16.60;46.90
39325;DHT22;25037;49.488;9.900;2024-02-21T13:58:15;16.60;46.90
39325;DHT22;25037;49.488;9.900;2024-02-21T14:00:42;16.50;46.60
39325;DHT22;25037;49.488;9.900;2024-02-21T14:03:09;16.50;46.70
39325;DHT22;25037;49.488;9.900;2024-02-21T14:05:36;16.50;46.60
39325;DHT22;25037;49.488;9.900;2024-02-21T14:08:07;16.40;46.70
39325;DHT22;25037;49.488;9.900;2024-02-21T14:10:34;16.40;46.70
39325;DHT22;25037;49.488;9.900;2024-02-21T14:13:01;16.30;46.70
39325;DHT22;25037;49.488;9.900;2024-02-21T14:15:27;16.20;46.80
39325;DHT22;25037;49.488;9.900;2024-02-21T14:17:54;16.20;46.80
39325;DHT22;25037;49.488;9.900;2024-02-21T14:20:22;16.10;47.10
39325;DHT22;25037;49.488;9.900;2024-02-21T14:22:49;16.00;47.10
39325;DHT22;25037;49.488;9.900;2024-02-21T14:25:16;15.90;47.00
39325;DHT22;25037;49.488;9.900;2024-02-21T14:27:43;15.80;47.10
39325;DHT22;25037;49.488;9.900;2024-02-21T14:30:10;15.80;47.50
39325;DHT22;25037;49.488;9.900;2024-02-21T14:32:38;15.80;47.50
39325;DHT22;25037;49.488;9.900;2024-02-21T14:35:06;15.80;47.40
39325;DHT22;25037;49.488;9.900;2024-02-21T14:37:33;15.80;47.30
39325;DHT22;25037;49.488;9.900;2024-02-21T14:40:00;15.80;47.20
39325;DHT22;25037;49.488;9.900;2024-02-21T14:42:27;15.80;47.30
39325;DHT22;25037;49.488;9.900;2024-02-21T14:44:54;15.70;47.40
39325;DHT22;25037;49.488;9.900;2024-02-21T14:47:31;15.70;47.30
39325;DHT22;25037;49.488;9.900;2024-02-21T14:49:58;15.70;47.30
39325;DHT22;25037;49.488;9.900;2024-02-21T14:52:24;15.70;47.30
39325;DHT22;25037;49.488;9.900;2024-02-21T14:54:51;15.60;47.50
39325;DHT22;25037;49.488;9.900;2024-02-21T14:57:18;15.60;47.50
39325;DHT22;25037;49.488;9.900;2024-02-21T14:59:46;15.60;47.80
39325;DHT22;25037;49.488;9.900;2024-02-21T15:02:15;15.50;47.70
39325;DHT22;25037;49.488;9.900;2024-02-21T15:04:42;15.50;47.60
39325;DHT22;25037;49.488;9.900;2024-02-21T15:07:09;15.40;47.50
39325;DHT22;25037;49.488;9.900;2024-02-21T15:09:35;15.30;47.50
39325;DHT22;25037;49.488;9.900;2024-02-21T15:12:02;15.30;47.70
39325;DHT22;25037;49.488;9.900;2024-02-21T15:14:29;15.20;47.60
39325;DHT22;25037;49.488;9.900;2024-02-21T15:16:55;15.10;47.50
39325;DHT22;25037;49.488;9.900;2024-02-21T15:19:23;15.10;47.50
39325;DHT22;25037;49.488;9.900;2024-02-21T15:21:50;15.00;47.60
39325;DHT22;25037;49.488;9.900;2024-02-21T15:24:16;15.00;47.70
39325;DHT22;25037;49.488;9.900;2024-02-21T15:26:43;14.90;47.80
39325;DHT22;25037;49.488;9.900;2024-02-21T15:29:10;14.90;48.00
39325;DHT22;25037;49.488;9.900;2024-02-21T15:31:36;14.90;48.20
39325;DHT22;25037;49.488;9.900;2024-02-21T15:34:04;14.90;48.10
39325;DHT22;25037;49.488;9.900;2024-02-21T15:36:31;14.90;48.10
39325;DHT22;25037;49.488;9.900;2024-02-21T15:38:57;14.90;48.20